sensor_id;sensor_type;location;lat;lon;timestamp;pressure;altitude;pressure_sealevel;temperature;humidity
68508;BME280;55510;49.560;19.090;2023-04-30T00:02:54;96407.13;;;8.56;100.00
68508;BME280;55510;49.560;19.090;2023-04-30T00:05:55;96400.22;;;8.55;100.00
68508;BME280;55510;49.560;19.090;2023-04-30T00:08:56;96397.25;;;8.51;100.00
68508;BME280;55510;49.560;19.090;2023-04-30T00:11:57;96404.63;;;8.49;100.00
68508;BME280;55510;49.560;19.090;2023-04-30T00:14:57;96405.84;;;8.47;100.00
68508;BME280;55510;49.560;19.090;2023-04-30T00:17:58;96408.16;;;8.43;100.00
68508;BME280;55510;49.560;19.090;2023-04-30T00:20:59;96406.88;;;8.46;100.00
68508;BME280;55510;49.560;19.090;2023-04-30T00:23:59;96406.53;;;8.42;100.00
68508;BME280;55510;49.560;19.090;2023-04-30T00:27:00;96413.47;;;8.43;100.00
68508;BME280;55510;49.560;19.090;2023-04-30T00:30:01;96415.09;;;8.44;100.00
68508;BME280;55510;49.560;19.090;2023-04-30T00:33:01;96414.63;;;8.47;100.00
68508;BME280;55510;49.560;19.090;2023-04-30T00:36:02;96415.22;;;8.49;100.00
68508;BME280;55510;49.560;19.090;2023-04-30T00:39:03;96418.88;;;8.48;100.00
68508;BME280;55510;49.560;19.090;2023-04-30T00:42:04;96421.53;;;8.48;100.00
68508;BME280;55510;49.560;19.090;2023-04-30T00:45:05;96419.69;;;8.49;100.00
68508;BME280;55510;49.560;19.090;2023-04-30T00:48:06;96422.34;;;8.49;100.00
68508;BME280;55510;49.560;19.090;2023-04-30T00:51:07;96420.53;;;8.49;100.00
68508;BME280;55510;49.560;19.090;2023-04-30T00:54:08;96423.75;;;8.51;100.00
68508;BME280;55510;49.560;19.090;2023-04-30T00:57:11;96420.66;;;8.54;100.00
68508;BME280;55510;49.560;19.090;2023-04-30T01:00:13;96421.44;;;8.55;100.00
68508;BME280;55510;49.560;19.090;2023-04-30T01:03:15;96425.84;;;8.49;100.00
68508;BME280;55510;49.560;19.090;2023-04-30T01:06:16;96426.41;;;8.51;100.00
68508;BME280;55510;49.560;19.090;2023-04-30T01:09:16;96423.19;;;8.49;100.00
68508;BME280;55510;49.560;19.090;2023-04-30T01:12:27;96421.31;;;8.50;100.00
68508;BME280;55510;49.560;19.090;2023-04-30T01:15:41;96426.41;;;8.51;100.00
68508;BME280;55510;49.560;19.090;2023-04-30T01:18:48;96423.97;;;8.50;100.00
68508;BME280;55510;49.560;19.090;2023-04-30T01:29:15;96434.72;;;8.55;100.00
68508;BME280;55510;49.560;19.090;2023-04-30T01:32:16;96430.91;;;8.51;100.00
68508;BME280;55510;49.560;19.090;2023-04-30T01:35:17;96425.22;;;8.47;100.00
68508;BME280;55510;49.560;19.090;2023-04-30T01:41:28;96432.03;;;8.43;100.00
68508;BME280;55510;49.560;19.090;2023-04-30T01:44:41;96439.53;;;8.46;100.00
68508;BME280;55510;49.560;19.090;2023-04-30T01:48:07;96438.13;;;8.44;100.00
68508;BME280;55510;49.560;19.090;2023-04-30T01:57:41;96440.09;;;8.48;100.00
68508;BME280;55510;49.560;19.090;2023-04-30T02:00:43;96440.72;;;8.50;100.00
68508;BME280;55510;49.560;19.090;2023-04-30T02:03:43;96441.75;;;8.49;100.00
68508;BME280;55510;49.560;19.090;2023-04-30T02:06:44;96444.84;;;8.46;100.00
68508;BME280;55510;49.560;19.090;2023-04-30T02:09:45;96444.00;;;8.46;100.00
68508;BME280;55510;49.560;19.090;2023-04-30T02:12:45;96448.53;;;8.45;100.00
68508;BME280;55510;49.560;19.090;2023-04-30T02:15:49;96445.28;;;8.43;100.00
68508;BME280;55510;49.560;19.090;2023-04-30T02:18:50;96443.69;;;8.42;100.00
68508;BME280;55510;49.560;19.090;2023-04-30T02:21:51;96447.38;;;8.41;100.00
68508;BME280;55510;49.560;19.090;2023-04-30T02:24:52;96451.06;;;8.40;100.00
68508;BME280;55510;49.560;19.090;2023-04-30T02:27:55;96447.22;;;8.36;100.00
68508;BME280;55510;49.560;19.090;2023-04-30T02:30:55;96441.31;;;8.34;100.00
68508;BME280;55510;49.560;19.090;2023-04-30T02:33:56;96445.47;;;8.30;100.00
68508;BME280;55510;49.560;19.090;2023-04-30T02:36:57;96445.13;;;8.26;100.00
68508;BME280;55510;49.560;19.090;2023-04-30T02:39:58;96449.84;;;8.24;100.00
68508;BME280;55510;49.560;19.090;2023-04-30T02:42:58;96453.75;;;8.21;100.00
68508;BME280;55510;49.560;19.090;2023-04-30T02:46:00;96447.09;;;8.19;100.00
68508;BME280;55510;49.560;19.090;2023-04-30T02:49:01;96440.38;;;8.16;100.00
68508;BME280;55510;49.560;19.090;2023-04-30T02:52:02;96443.25;;;8.15;100.00
68508;BME280;55510;49.560;19.090;2023-04-30T02:55:03;96456.50;;;8.15;100.00
68508;BME280;55510;49.560;19.090;2023-04-30T02:58:04;96453.63;;;8.16;100.00
68508;BME280;55510;49.560;19.090;2023-04-30T03:01:04;96457.91;;;8.17;100.00
68508;BME280;55510;49.560;19.090;2023-04-30T03:04:05;96457.91;;;8.17;100.00
68508;BME280;55510;49.560;19.090;2023-04-30T03:07:06;96461.59;;;8.16;100.00
68508;BME280;55510;49.560;19.090;2023-04-30T03:10:07;96457.91;;;8.17;100.00
68508;BME280;55510;49.560;19.090;2023-04-30T03:13:08;96463.78;;;8.19;100.00
68508;BME280;55510;49.560;19.090;2023-04-30T03:16:08;96460.34;;;8.19;100.00
68508;BME280;55510;49.560;19.090;2023-04-30T03:19:10;96458.94;;;8.16;100.00
68508;BME280;55510;49.560;19.090;2023-04-30T03:22:11;96461.59;;;8.16;100.00
68508;BME280;55510;49.560;19.090;2023-04-30T03:25:14;96469.75;;;8.15;100.00
68508;BME280;55510;49.560;19.090;2023-04-30T03:28:14;96467.34;;;8.13;100.00
68508;BME280;55510;49.560;19.090;2023-04-30T03:31:15;96470.19;;;8.11;100.00
68508;BME280;55510;49.560;19.090;2023-04-30T03:34:16;96471.81;;;8.12;100.00
68508;BME280;55510;49.560;19.090;2023-04-30T03:37:16;96470.78;;;8.13;100.00
68508;BME280;55510;49.560;19.090;2023-04-30T03:40:17;96469.41;;;8.11;100.00
68508;BME280;55510;49.560;19.090;2023-04-30T03:43:18;96466.19;;;8.09;100.00
68508;BME280;55510;49.560;19.090;2023-04-30T03:46:19;96475.50;;;8.11;100.00
68508;BME280;55510;49.560;19.090;2023-04-30T03:49:19;96483.25;;;8.13;100.00
68508;BME280;55510;49.560;19.090;2023-04-30T03:52:21;96490.94;;;8.15;100.00
68508;BME280;55510;49.560;19.090;2023-04-30T03:55:21;96490.16;;;8.14;100.00
68508;BME280;55510;49.560;19.090;2023-04-30T03:58:22;96497.06;;;8.15;100.00
68508;BME280;55510;49.560;19.090;2023-04-30T04:01:23;96500.31;;;8.17;100.00
68508;BME280;55510;49.560;19.090;2023-04-30T04:04:24;96500.31;;;8.17;100.00
68508;BME280;55510;49.560;19.090;2023-04-30T04:07:25;96487.63;;;8.19;100.00
68508;BME280;55510;49.560;19.090;2023-04-30T04:10:25;96499.88;;;8.20;100.00
68508;BME280;55510;49.560;19.090;2023-04-30T04:13:26;96499.66;;;8.22;100.00
68508;BME280;55510;49.560;19.090;2023-04-30T04:16:29;96500.91;;;8.19;100.00
68508;BME280;55510;49.560;19.090;2023-04-30T04:19:30;96512.16;;;8.15;100.00
68508;BME280;55510;49.560;19.090;2023-04-30T04:22:30;96510.09;;;8.17;100.00
68508;BME280;55510;49.560;19.090;2023-04-30T04:25:31;96517.84;;;8.18;100.00
68508;BME280;55510;49.560;19.090;2023-04-30T04:28:32;96517.03;;;8.18;100.00
68508;BME280;55510;49.560;19.090;2023-04-30T04:31:33;96519.44;;;8.19;100.00
68508;BME280;55510;49.560;19.090;2023-04-30T04:34:34;96522.94;;;8.20;100.00
68508;BME280;55510;49.560;19.090;2023-04-30T04:37:34;96534.78;;;8.17;100.00
68508;BME280;55510;49.560;19.090;2023-04-30T04:40:36;96540.28;;;8.16;100.00
68508;BME280;55510;49.560;19.090;2023-04-30T04:43:37;96543.19;;;8.14;100.00
68508;BME280;55510;49.560;19.090;2023-04-30T04:46:38;96553.78;;;8.14;100.00
68508;BME280;55510;49.560;19.090;2023-04-30T04:49:41;96563.66;;;8.07;100.00
68508;BME280;55510;49.560;19.090;2023-04-30T04:52:42;96566.19;;;8.02;100.00
68508;BME280;55510;49.560;19.090;2023-04-30T04:55:42;96576.03;;;7.94;100.00
68508;BME280;55510;49.560;19.090;2023-04-30T04:58:44;96590.53;;;7.92;100.00
68508;BME280;55510;49.560;19.090;2023-04-30T05:01:44;96598.69;;;7.90;100.00
68508;BME280;55510;49.560;19.090;2023-04-30T05:04:45;96603.50;;;7.81;100.00
68508;BME280;55510;49.560;19.090;2023-04-30T05:07:46;96615.91;;;7.81;100.00
68508;BME280;55510;49.560;19.090;2023-04-30T05:10:49;96617.97;;;7.79;100.00
68508;BME280;55510;49.560;19.090;2023-04-30T05:13:50;96630.03;;;7.75;100.00
68508;BME280;55510;49.560;19.090;2023-04-30T05:16:51;96651.38;;;7.61;100.00
68508;BME280;55510;49.560;19.090;2023-04-30T05:19:52;96666.16;;;7.44;100.00
68508;BME280;55510;49.560;19.090;2023-04-30T05:22:52;96682.44;;;7.22;100.00
68508;BME280;55510;49.560;19.090;2023-04-30T05:26:27;96675.84;;;6.99;100.00
68508;BME280;55510;49.560;19.090;2023-04-30T05:29:27;96681.66;;;6.82;100.00
68508;BME280;55510;49.560;19.090;2023-04-30T05:32:28;96684.97;;;6.71;100.00
68508;BME280;55510;49.560;19.090;2023-04-30T05:35:29;96695.22;;;6.54;100.00
68508;BME280;55510;49.560;19.090;2023-04-30T05:38:30;96705.03;;;6.40;100.00
68508;BME280;55510;49.560;19.090;2023-04-30T05:41:31;96711.75;;;6.36;100.00
68508;BME280;55510;49.560;19.090;2023-04-30T05:44:32;96718.47;;;6.32;100.00
68508;BME280;55510;49.560;19.090;2023-04-30T05:47:32;96718.28;;;6.27;100.00
68508;BME280;55510;49.560;19.090;2023-04-30T05:50:33;96723.78;;;6.18;100.00
68508;BME280;55510;49.560;19.090;2023-04-30T05:53:34;96730.31;;;6.16;100.00
68508;BME280;55510;49.560;19.090;2023-04-30T05:56:34;96733.56;;;6.11;100.00
68508;BME280;55510;49.560;19.090;2023-04-30T05:59:35;96741.50;;;6.11;100.00
68508;BME280;55510;49.560;19.090;2023-04-30T06:02:36;96747.00;;;6.09;100.00
68508;BME280;55510;49.560;19.090;2023-04-30T06:05:36;96752.47;;;6.08;100.00
68508;BME280;55510;49.560;19.090;2023-04-30T06:08:37;96751.06;;;6.05;100.00
68508;BME280;55510;49.560;19.090;2023-04-30T06:11:41;96751.88;;;6.06;100.00
68508;BME280;55510;49.560;19.090;2023-04-30T06:14:42;96758.56;;;6.02;100.00
68508;BME280;55510;49.560;19.090;2023-04-30T06:17:44;96760.59;;;6.00;100.00
68508;BME280;55510;49.560;19.090;2023-04-30T06:20:45;96762.25;;;6.01;100.00
68508;BME280;55510;49.560;19.090;2023-04-30T06:23:46;96766.69;;;6.07;100.00
68508;BME280;55510;49.560;19.090;2023-04-30T06:26:49;96770.13;;;6.14;100.00
68508;BME280;55510;49.560;19.090;2023-04-30T06:29:50;96779.28;;;6.25;100.00
68508;BME280;55510;49.560;19.090;2023-04-30T06:32:50;96774.19;;;6.37;100.00
68508;BME280;55510;49.560;19.090;2023-04-30T06:35:51;96782.28;;;6.49;100.00
68508;BME280;55510;49.560;19.090;2023-04-30T06:38:54;96781.66;;;6.60;100.00
68508;BME280;55510;49.560;19.090;2023-04-30T06:41:55;96787.94;;;6.66;100.00
68508;BME280;55510;49.560;19.090;2023-04-30T06:44:55;96784.47;;;6.72;100.00
68508;BME280;55510;49.560;19.090;2023-04-30T06:47:56;96794.81;;;6.80;100.00
68508;BME280;55510;49.560;19.090;2023-04-30T06:50:58;96796.78;;;6.92;100.00
68508;BME280;55510;49.560;19.090;2023-04-30T06:53:59;96798.78;;;7.03;100.00
68508;BME280;55510;49.560;19.090;2023-04-30T06:57:00;96806.28;;;7.13;100.00
68508;BME280;55510;49.560;19.090;2023-04-30T07:00:03;96800.72;;;7.21;100.00
68508;BME280;55510;49.560;19.090;2023-04-30T07:03:04;96805.66;;;7.18;100.00
68508;BME280;55510;49.560;19.090;2023-04-30T07:06:04;96805.66;;;7.18;100.00
68508;BME280;55510;49.560;19.090;2023-04-30T07:09:05;96809.91;;;7.19;100.00
68508;BME280;55510;49.560;19.090;2023-04-30T07:12:06;96814.19;;;7.20;100.00
68508;BME280;55510;49.560;19.090;2023-04-30T07:15:07;96823.94;;;7.19;99.18
68508;BME280;55510;49.560;19.090;2023-04-30T07:18:08;96814.53;;;7.30;99.55
68508;BME280;55510;49.560;19.090;2023-04-30T07:21:09;96821.63;;;7.36;99.13
68508;BME280;55510;49.560;19.090;2023-04-30T07:24:10;96818.56;;;7.39;97.79
68508;BME280;55510;49.560;19.090;2023-04-30T07:27:11;96816.88;;;7.52;98.02
68508;BME280;55510;49.560;19.090;2023-04-30T07:30:11;96820.63;;;7.69;98.09
68508;BME280;55510;49.560;19.090;2023-04-30T07:33:12;96815.22;;;7.83;96.01
68508;BME280;55510;49.560;19.090;2023-04-30T07:36:13;96807.94;;;8.04;96.99
68508;BME280;55510;49.560;19.090;2023-04-30T07:39:13;96812.53;;;8.15;95.53
68508;BME280;55510;49.560;19.090;2023-04-30T07:42:14;96816.69;;;8.30;94.11
68508;BME280;55510;49.560;19.090;2023-04-30T07:45:15;96810.78;;;8.53;93.14
68508;BME280;55510;49.560;19.090;2023-04-30T07:48:16;96816.63;;;8.80;92.29
68508;BME280;55510;49.560;19.090;2023-04-30T07:51:17;96818.38;;;9.05;90.02
68508;BME280;55510;49.560;19.090;2023-04-30T07:54:18;96819.19;;;9.24;88.10
68508;BME280;55510;49.560;19.090;2023-04-30T07:57:20;96823.06;;;9.40;85.60
68508;BME280;55510;49.560;19.090;2023-04-30T08:00:20;96823.84;;;9.71;88.01
68508;BME280;55510;49.560;19.090;2023-04-30T08:03:21;96821.47;;;9.82;83.73
68508;BME280;55510;49.560;19.090;2023-04-30T08:06:22;96823.25;;;9.69;81.72
68508;BME280;55510;49.560;19.090;2023-04-30T08:09:23;96825.44;;;9.61;81.44
68508;BME280;55510;49.560;19.090;2023-04-30T08:12:24;96831.03;;;9.40;76.93
68508;BME280;55510;49.560;19.090;2023-04-30T08:15:25;96834.03;;;9.44;81.49
68508;BME280;55510;49.560;19.090;2023-04-30T08:18:26;96834.53;;;9.53;80.96
68508;BME280;55510;49.560;19.090;2023-04-30T08:21:26;96836.69;;;9.75;81.47
68508;BME280;55510;49.560;19.090;2023-04-30T08:24:31;96831.38;;;9.75;77.68
68508;BME280;55510;49.560;19.090;2023-04-30T08:27:31;96837.66;;;9.92;78.18
68508;BME280;55510;49.560;19.090;2023-04-30T08:30:32;96834.13;;;10.22;78.64
68508;BME280;55510;49.560;19.090;2023-04-30T08:33:33;96830.91;;;10.44;78.32
68508;BME280;55510;49.560;19.090;2023-04-30T08:36:33;96833.91;;;10.71;77.18
68508;BME280;55510;49.560;19.090;2023-04-30T08:39:34;96844.41;;;11.02;76.17
68508;BME280;55510;49.560;19.090;2023-04-30T08:42:36;96842.66;;;11.08;73.66
68508;BME280;55510;49.560;19.090;2023-04-30T08:45:37;96845.78;;;11.16;72.70
68508;BME280;55510;49.560;19.090;2023-04-30T08:48:40;96844.22;;;11.32;73.35
68508;BME280;55510;49.560;19.090;2023-04-30T08:51:40;96844.06;;;11.39;75.28
68508;BME280;55510;49.560;19.090;2023-04-30T08:54:43;96839.63;;;11.57;74.06
68508;BME280;55510;49.560;19.090;2023-04-30T08:57:43;96844.00;;;11.63;71.78
68508;BME280;55510;49.560;19.090;2023-04-30T09:00:44;96847.09;;;11.89;72.55
68508;BME280;55510;49.560;19.090;2023-04-30T09:03:45;96845.00;;;11.91;70.56
68508;BME280;55510;49.560;19.090;2023-04-30T09:06:45;96850.06;;;12.22;71.86
68508;BME280;55510;49.560;19.090;2023-04-30T09:09:46;96841.78;;;12.57;71.33
68508;BME280;55510;49.560;19.090;2023-04-30T09:13:07;96845.09;;;12.65;69.54
68508;BME280;55510;49.560;19.090;2023-04-30T09:16:09;96840.47;;;12.38;67.55
68508;BME280;55510;49.560;19.090;2023-04-30T09:19:29;96846.66;;;12.43;66.88
68508;BME280;55510;49.560;19.090;2023-04-30T09:22:30;96843.03;;;12.32;65.26
68508;BME280;55510;49.560;19.090;2023-04-30T09:25:37;96834.72;;;12.29;69.72
68508;BME280;55510;49.560;19.090;2023-04-30T09:28:53;96838.25;;;12.35;68.08
68508;BME280;55510;49.560;19.090;2023-04-30T09:32:07;96837.59;;;12.27;68.76
68508;BME280;55510;49.560;19.090;2023-04-30T09:35:27;96839.75;;;11.96;69.60
68508;BME280;55510;49.560;19.090;2023-04-30T09:38:31;96841.41;;;11.68;68.47
68508;BME280;55510;49.560;19.090;2023-04-30T09:41:32;96845.22;;;11.43;70.08
68508;BME280;55510;49.560;19.090;2023-04-30T09:44:37;96850.44;;;11.09;69.33
68508;BME280;55510;49.560;19.090;2023-04-30T09:47:38;96847.22;;;10.83;71.22
68508;BME280;55510;49.560;19.090;2023-04-30T09:50:39;96837.69;;;11.11;72.78
68508;BME280;55510;49.560;19.090;2023-04-30T09:53:41;96836.41;;;11.89;74.33
68508;BME280;55510;49.560;19.090;2023-04-30T09:56:43;96832.56;;;12.65;70.67
68508;BME280;55510;49.560;19.090;2023-04-30T09:59:45;96826.28;;;12.94;66.72
68508;BME280;55510;49.560;19.090;2023-04-30T10:02:46;96830.75;;;12.71;65.63
68508;BME280;55510;49.560;19.090;2023-04-30T10:05:50;96825.00;;;12.23;66.41
68508;BME280;55510;49.560;19.090;2023-04-30T10:08:55;96828.94;;;12.03;66.81
68508;BME280;55510;49.560;19.090;2023-04-30T10:11:56;96825.94;;;11.82;67.78
68508;BME280;55510;49.560;19.090;2023-04-30T10:15:04;96833.03;;;11.77;67.80
68508;BME280;55510;49.560;19.090;2023-04-30T10:18:20;96824.44;;;11.74;66.31
68508;BME280;55510;49.560;19.090;2023-04-30T10:21:23;96824.22;;;11.47;65.02
68508;BME280;55510;49.560;19.090;2023-04-30T10:24:26;96827.88;;;11.29;68.01
68508;BME280;55510;49.560;19.090;2023-04-30T10:27:28;96826.63;;;11.31;67.74
68508;BME280;55510;49.560;19.090;2023-04-30T10:30:30;96826.19;;;11.11;68.68
68508;BME280;55510;49.560;19.090;2023-04-30T10:33:40;96826.00;;;11.00;68.10
68508;BME280;55510;49.560;19.090;2023-04-30T10:36:44;96825.44;;;10.98;68.37
68508;BME280;55510;49.560;19.090;2023-04-30T10:39:50;96826.44;;;11.09;67.21
68508;BME280;55510;49.560;19.090;2023-04-30T10:42:52;96825.91;;;11.24;66.76
68508;BME280;55510;49.560;19.090;2023-04-30T10:45:56;96819.09;;;11.57;67.34
68508;BME280;55510;49.560;19.090;2023-04-30T10:48:56;96816.09;;;12.51;66.39
68508;BME280;55510;49.560;19.090;2023-04-30T10:51:59;96810.31;;;13.43;66.09
68508;BME280;55510;49.560;19.090;2023-04-30T10:55:06;96814.03;;;13.70;60.39
68508;BME280;55510;49.560;19.090;2023-04-30T11:01:24;96802.75;;;13.40;56.80
68508;BME280;55510;49.560;19.090;2023-04-30T11:04:27;96809.47;;;12.98;59.66
68508;BME280;55510;49.560;19.090;2023-04-30T11:07:28;96808.25;;;12.84;60.72
68508;BME280;55510;49.560;19.090;2023-04-30T11:10:32;96808.41;;;12.77;60.09
68508;BME280;55510;49.560;19.090;2023-04-30T11:16:41;96808.50;;;12.43;61.98
68508;BME280;55510;49.560;19.090;2023-04-30T11:19:46;96802.28;;;12.37;61.46
68508;BME280;55510;49.560;19.090;2023-04-30T11:23:07;96799.84;;;12.75;62.51
68508;BME280;55510;49.560;19.090;2023-04-30T11:26:08;96808.81;;;13.08;57.87
68508;BME280;55510;49.560;19.090;2023-04-30T11:29:09;96807.81;;;13.14;57.20
68508;BME280;55510;49.560;19.090;2023-04-30T11:32:10;96809.31;;;13.05;57.91
68508;BME280;55510;49.560;19.090;2023-04-30T11:35:11;96803.34;;;12.98;58.66
68508;BME280;55510;49.560;19.090;2023-04-30T11:38:12;96803.22;;;12.87;58.49
68508;BME280;55510;49.560;19.090;2023-04-30T11:41:15;96800.19;;;13.01;60.21
68508;BME280;55510;49.560;19.090;2023-04-30T11:44:25;96801.81;;;13.52;61.00
68508;BME280;55510;49.560;19.090;2023-04-30T11:47:26;96803.97;;;13.82;58.68
68508;BME280;55510;49.560;19.090;2023-04-30T11:50:32;96804.97;;;14.03;57.95
68508;BME280;55510;49.560;19.090;2023-04-30T11:53:33;96803.75;;;13.84;53.68
68508;BME280;55510;49.560;19.090;2023-04-30T11:56:36;96799.69;;;13.81;55.31
68508;BME280;55510;49.560;19.090;2023-04-30T11:59:41;96798.91;;;13.81;54.80
68508;BME280;55510;49.560;19.090;2023-04-30T12:02:43;96795.66;;;13.78;55.38
68508;BME280;55510;49.560;19.090;2023-04-30T12:05:45;96800.28;;;13.88;53.52
68508;BME280;55510;49.560;19.090;2023-04-30T12:08:46;96800.16;;;14.05;53.33
68508;BME280;55510;49.560;19.090;2023-04-30T12:11:47;96794.47;;;14.29;53.56
68508;BME280;55510;49.560;19.090;2023-04-30T12:14:48;96799.78;;;14.67;51.86
68508;BME280;55510;49.560;19.090;2023-04-30T12:17:49;96791.91;;;14.50;49.40
68508;BME280;55510;49.560;19.090;2023-04-30T12:20:49;96795.16;;;14.57;51.91
68508;BME280;55510;49.560;19.090;2023-04-30T12:23:50;96791.44;;;14.58;51.26
68508;BME280;55510;49.560;19.090;2023-04-30T12:26:52;96787.50;;;14.28;51.20
68508;BME280;55510;49.560;19.090;2023-04-30T12:29:53;96785.31;;;14.20;51.44
68508;BME280;55510;49.560;19.090;2023-04-30T12:32:57;96777.50;;;13.81;50.07
68508;BME280;55510;49.560;19.090;2023-04-30T12:35:58;96773.81;;;13.87;53.17
68508;BME280;55510;49.560;19.090;2023-04-30T12:39:05;96776.28;;;14.36;54.35
68508;BME280;55510;49.560;19.090;2023-04-30T12:42:07;96768.09;;;14.54;52.38
68508;BME280;55510;49.560;19.090;2023-04-30T12:45:08;96772.97;;;14.67;53.78
68508;BME280;55510;49.560;19.090;2023-04-30T12:48:10;96769.81;;;14.70;51.39
68508;BME280;55510;49.560;19.090;2023-04-30T12:51:11;96765.00;;;14.72;51.18
68508;BME280;55510;49.560;19.090;2023-04-30T12:54:11;96764.69;;;14.69;50.61
68508;BME280;55510;49.560;19.090;2023-04-30T12:57:12;96758.38;;;14.90;51.38
68508;BME280;55510;49.560;19.090;2023-04-30T13:00:13;96762.25;;;15.26;51.90
68508;BME280;55510;49.560;19.090;2023-04-30T13:03:16;96755.88;;;15.58;51.63
68508;BME280;55510;49.560;19.090;2023-04-30T13:06:17;96754.19;;;15.20;49.44
68508;BME280;55510;49.560;19.090;2023-04-30T13:09:17;96763.34;;;15.35;49.91
68508;BME280;55510;49.560;19.090;2023-04-30T13:12:18;96750.34;;;14.96;48.50
68508;BME280;55510;49.560;19.090;2023-04-30T13:15:19;96744.94;;;14.80;51.05
68508;BME280;55510;49.560;19.090;2023-04-30T13:18:20;96743.59;;;14.77;49.09
68508;BME280;55510;49.560;19.090;2023-04-30T13:21:21;96740.50;;;15.12;49.42
68508;BME280;55510;49.560;19.090;2023-04-30T13:24:22;96741.41;;;15.64;51.69
68508;BME280;55510;49.560;19.090;2023-04-30T13:27:23;96739.00;;;16.04;47.53
68508;BME280;55510;49.560;19.090;2023-04-30T13:30:24;96739.53;;;16.16;45.20
68508;BME280;55510;49.560;19.090;2023-04-30T13:33:24;96736.00;;;16.36;46.46
68508;BME280;55510;49.560;19.090;2023-04-30T13:36:25;96738.66;;;16.52;47.90
68508;BME280;55510;49.560;19.090;2023-04-30T13:39:26;96734.25;;;16.82;46.75
68508;BME280;55510;49.560;19.090;2023-04-30T13:42:28;96743.81;;;17.09;44.23
68508;BME280;55510;49.560;19.090;2023-04-30T13:45:29;96740.63;;;17.02;43.64
68508;BME280;55510;49.560;19.090;2023-04-30T13:48:30;96729.44;;;16.74;43.53
68508;BME280;55510;49.560;19.090;2023-04-30T13:51:30;96737.47;;;16.79;45.08
68508;BME280;55510;49.560;19.090;2023-04-30T13:54:31;96737.47;;;16.79;44.19
68508;BME280;55510;49.560;19.090;2023-04-30T13:57:32;96731.19;;;16.18;42.03
68508;BME280;55510;49.560;19.090;2023-04-30T14:00:33;96728.25;;;16.04;44.02
68508;BME280;55510;49.560;19.090;2023-04-30T14:03:33;96733.09;;;16.02;45.04
68508;BME280;55510;49.560;19.090;2023-04-30T14:06:36;96730.13;;;16.19;45.73
68508;BME280;55510;49.560;19.090;2023-04-30T14:09:37;96734.09;;;16.42;42.62
68508;BME280;55510;49.560;19.090;2023-04-30T14:12:38;96726.84;;;16.48;39.08
68508;BME280;55510;49.560;19.090;2023-04-30T14:15:39;96725.25;;;16.42;40.45
68508;BME280;55510;49.560;19.090;2023-04-30T14:18:39;96735.41;;;16.60;40.34
68508;BME280;55510;49.560;19.090;2023-04-30T14:21:40;96721.94;;;16.65;39.87
68508;BME280;55510;49.560;19.090;2023-04-30T14:24:41;96721.41;;;16.68;41.44
68508;BME280;55510;49.560;19.090;2023-04-30T14:27:42;96720.88;;;16.61;40.94
68508;BME280;55510;49.560;19.090;2023-04-30T14:30:43;96723.53;;;16.72;40.57
68508;BME280;55510;49.560;19.090;2023-04-30T14:33:43;96720.28;;;16.75;41.53
68508;BME280;55510;49.560;19.090;2023-04-30T14:36:45;96720.25;;;16.90;40.39
68508;BME280;55510;49.560;19.090;2023-04-30T14:39:45;96721.31;;;16.89;39.53
68508;BME280;55510;49.560;19.090;2023-04-30T14:42:46;96717.75;;;17.09;39.67
68508;BME280;55510;49.560;19.090;2023-04-30T14:45:47;96722.00;;;17.95;38.47
68508;BME280;55510;49.560;19.090;2023-04-30T14:48:48;96719.00;;;18.80;37.08
68508;BME280;55510;49.560;19.090;2023-04-30T14:51:48;96724.41;;;19.95;33.80
68508;BME280;55510;49.560;19.090;2023-04-30T14:54:49;96726.97;;;20.76;31.75
68508;BME280;55510;49.560;19.090;2023-04-30T14:57:50;96724.28;;;21.40;31.11
68508;BME280;55510;49.560;19.090;2023-04-30T15:00:50;96721.34;;;21.87;29.96
68508;BME280;55510;49.560;19.090;2023-04-30T15:03:52;96723.88;;;22.87;29.71
68508;BME280;55510;49.560;19.090;2023-04-30T15:06:53;96715.50;;;23.24;29.16
68508;BME280;55510;49.560;19.090;2023-04-30T15:09:53;96720.09;;;23.85;27.42
68508;BME280;55510;49.560;19.090;2023-04-30T15:12:54;96726.03;;;24.53;26.04
68508;BME280;55510;49.560;19.090;2023-04-30T15:15:54;96722.19;;;24.06;26.74
68508;BME280;55510;49.560;19.090;2023-04-30T15:18:55;96722.53;;;23.78;26.65
68508;BME280;55510;49.560;19.090;2023-04-30T15:21:56;96723.03;;;23.63;26.74
68508;BME280;55510;49.560;19.090;2023-04-30T15:24:57;96722.53;;;23.78;25.92
68508;BME280;55510;49.560;19.090;2023-04-30T15:27:58;96719.84;;;23.69;27.50
68508;BME280;55510;49.560;19.090;2023-04-30T15:30:59;96723.00;;;23.98;25.81
68508;BME280;55510;49.560;19.090;2023-04-30T15:34:03;96732.41;;;23.21;25.75
68508;BME280;55510;49.560;19.090;2023-04-30T15:37:04;96723.66;;;22.66;27.18
68508;BME280;55510;49.560;19.090;2023-04-30T15:40:05;96731.41;;;22.50;27.06
68508;BME280;55510;49.560;19.090;2023-04-30T15:43:07;96727.16;;;22.58;26.96
68508;BME280;55510;49.560;19.090;2023-04-30T15:46:09;96723.03;;;22.69;27.07
68508;BME280;55510;49.560;19.090;2023-04-30T15:49:10;96728.28;;;22.34;27.65
68508;BME280;55510;49.560;19.090;2023-04-30T15:52:10;96726.25;;;21.85;28.93
68508;BME280;55510;49.560;19.090;2023-04-30T15:55:11;96723.28;;;21.96;28.82
68508;BME280;55510;49.560;19.090;2023-04-30T15:58:15;96733.31;;;22.50;27.63
68508;BME280;55510;49.560;19.090;2023-04-30T16:01:16;96728.69;;;22.19;26.80
68508;BME280;55510;49.560;19.090;2023-04-30T16:04:16;96724.47;;;22.35;27.40
68508;BME280;55510;49.560;19.090;2023-04-30T16:07:17;96720.44;;;22.01;27.84
68508;BME280;55510;49.560;19.090;2023-04-30T16:10:18;96716.97;;;22.09;28.01
68508;BME280;55510;49.560;19.090;2023-04-30T16:13:19;96716.47;;;21.98;27.70
68508;BME280;55510;49.560;19.090;2023-04-30T16:16:20;96713.41;;;21.68;27.95